Kurthwood, Louisiana
Current Conditions -  °F | °C
As of 6:25 PM on Saturday 25 Oct 2014 (Local Time) from KAQV Reporting Station
Haze Haze  
Wind Chill: 71°   Ceiling: Unl
Heat Index: 71°   Visibility: 2.5mi
Dew Point: 59°   Wind: 0mph
Humidity: 66%   Direction: NA
Pressure: 30.08"   Gusts: NA
Location:  31.34°N, 93.17°W
Report Text: KAQV 252325Z AUTO 00000KT 2 1/2SM HZ CLR 22/15 A3008 RMK AO2 VIS 1 1/4V5 T02170150
Loading
Personal Weather Stations






























Interactive Weather Map
Tropical Storm Tracking
New forecast layout! Learn more

10-Day Weather Forecast

Advertisements
Track Severe Weather on mobile